createdAt,value
2023-01-31T00:00:03.908Z,100740.16
2023-01-31T00:02:33.079Z,100739.22
2023-01-31T00:05:01.200Z,100735.66
2023-01-31T00:07:29.367Z,100754.69
2023-01-31T00:09:58.862Z,100746.31
2023-01-31T00:12:26.832Z,100745.41
2023-01-31T00:14:56.053Z,100757.72
2023-01-31T00:17:24.178Z,100756.88
2023-01-31T00:19:52.153Z,100750.81
2023-01-31T00:22:20.156Z,100767.50
2023-01-31T00:24:48.123Z,100765.59
2023-01-31T00:27:17.523Z,100781.91
2023-01-31T00:29:46.040Z,100788.03
2023-01-31T00:32:14.182Z,100775.22
2023-01-31T00:34:42.155Z,100774.44
2023-01-31T00:37:10.088Z,100792.28
2023-01-31T00:39:38.781Z,100774.56
2023-01-31T00:42:06.848Z,100769.41
2023-01-31T00:44:36.556Z,100784.47
2023-01-31T00:47:04.947Z,100796.22
2023-01-31T00:49:35.489Z,100801.22
2023-01-31T00:52:03.967Z,100814.78
2023-01-31T00:54:32.064Z,100813.44
2023-01-31T00:56:59.992Z,100808.94
2023-01-31T00:59:27.980Z,100828.66
2023-01-31T01:01:57.261Z,100824.63
2023-01-31T01:04:25.486Z,100820.03
2023-01-31T01:06:53.326Z,100830.16
2023-01-31T01:09:22.733Z,100836.16
2023-01-31T01:11:50.804Z,100836.84
2023-01-31T01:14:18.799Z,100838.53
2023-01-31T01:16:48.543Z,100848.56
2023-01-31T01:19:20.612Z,100849.00
2023-01-31T01:21:48.652Z,100838.53
2023-01-31T01:24:19.620Z,100857.59
2023-01-31T01:26:48.562Z,100858.69
2023-01-31T01:29:16.474Z,100862.78
2023-01-31T01:31:45.797Z,100847.06
2023-01-31T01:34:16.046Z,100845.28
2023-01-31T01:36:47.882Z,100857.41
2023-01-31T01:39:18.029Z,100861.78
2023-01-31T01:41:46.779Z,100848.88
2023-01-31T01:44:47.307Z,100856.16
2023-01-31T01:47:19.636Z,100876.66
2023-01-31T01:49:50.690Z,100868.00
2023-01-31T01:52:21.011Z,100886.28
2023-01-31T01:54:54.267Z,100880.03
2023-01-31T01:57:26.779Z,100884.19
2023-01-31T01:59:59.273Z,100890.50
2023-01-31T02:02:27.503Z,100899.28
2023-01-31T02:04:55.744Z,100899.16
2023-01-31T02:07:25.514Z,100909.50
2023-01-31T02:09:58.107Z,100913.66
2023-01-31T02:12:26.267Z,100908.00
2023-01-31T02:14:54.427Z,100902.63
2023-01-31T02:17:22.687Z,100885.44
2023-01-31T02:20:04.858Z,100927.06
2023-01-31T02:22:38.561Z,100930.38
2023-01-31T02:25:48.142Z,100942.63
2023-01-31T02:29:08.849Z,100957.19
2023-01-31T02:32:04.557Z,100957.63
2023-01-31T02:34:45.274Z,100958.34
2023-01-31T02:37:24.682Z,100955.63
2023-01-31T02:40:02.773Z,100974.03
2023-01-31T02:42:38.698Z,100972.72
2023-01-31T02:45:10.499Z,100954.78
2023-01-31T02:47:50.617Z,100966.16
2023-01-31T02:50:28.093Z,100951.34
2023-01-31T02:53:01.215Z,100957.56
2023-01-31T02:55:56.111Z,100960.13
2023-01-31T02:58:29.037Z,100942.03
2023-01-31T03:00:58.788Z,100956.31
2023-01-31T03:03:32.148Z,100954.69
2023-01-31T03:06:39.745Z,100950.53
2023-01-31T03:09:21.270Z,100951.94
2023-01-31T03:11:54.014Z,100957.00
2023-01-31T03:14:29.043Z,100935.56
2023-01-31T03:17:20.398Z,100948.69
2023-01-31T03:19:59.318Z,100952.28
2023-01-31T03:22:33.000Z,100952.53
2023-01-31T03:25:03.403Z,100950.44
2023-01-31T03:27:31.572Z,100946.88
2023-01-31T03:30:07.009Z,100964.03
2023-01-31T03:32:40.534Z,100968.47
2023-01-31T03:35:09.833Z,100970.38
2023-01-31T03:37:45.197Z,100978.25
2023-01-31T03:40:25.160Z,100982.78
2023-01-31T03:42:57.508Z,100971.50
2023-01-31T03:45:31.257Z,100971.50
2023-01-31T03:48:03.441Z,100988.88
2023-01-31T03:50:40.497Z,101002.88
2023-01-31T03:53:12.639Z,100979.56
2023-01-31T03:55:46.328Z,100990.56
2023-01-31T03:58:16.736Z,100992.47
2023-01-31T04:00:45.466Z,100984.47
2023-01-31T04:03:20.167Z,100993.22
2023-01-31T04:05:49.105Z,100996.84
2023-01-31T04:08:17.608Z,101008.47
2023-01-31T04:10:55.997Z,101005.47
2023-01-31T04:13:24.181Z,101014.13
2023-01-31T04:15:52.065Z,101004.56
2023-01-31T04:18:19.942Z,101012.28
2023-01-31T04:20:47.770Z,101023.72
2023-01-31T04:23:15.632Z,101011.63
2023-01-31T04:25:43.549Z,101017.06
2023-01-31T04:28:12.848Z,101016.09
2023-01-31T04:30:40.730Z,101018.16
2023-01-31T04:33:08.637Z,101010.00
2023-01-31T04:35:36.632Z,101013.81
2023-01-31T04:38:04.497Z,101032.72
2023-01-31T04:40:32.377Z,101022.22
2023-01-31T04:43:00.223Z,101033.34
2023-01-31T04:45:29.460Z,101027.13
2023-01-31T04:47:57.290Z,101033.56
2023-01-31T04:50:25.138Z,101040.13
2023-01-31T04:52:53.556Z,101050.94
2023-01-31T04:55:21.750Z,101056.78
2023-01-31T04:57:49.924Z,101049.81
2023-01-31T05:00:18.988Z,101062.16
2023-01-31T05:02:48.287Z,101059.22
2023-01-31T05:05:16.243Z,101052.31
2023-01-31T05:07:45.147Z,101056.69
2023-01-31T05:10:13.109Z,101066.94
2023-01-31T05:12:41.240Z,101054.91
2023-01-31T05:15:11.544Z,101063.50
2023-01-31T05:17:39.676Z,101062.72
2023-01-31T05:20:10.516Z,101062.25
2023-01-31T05:22:38.407Z,101070.59
2023-01-31T05:25:07.064Z,101069.72
2023-01-31T05:27:34.990Z,101065.25
2023-01-31T05:30:03.100Z,101068.25
2023-01-31T05:32:31.394Z,101058.09
2023-01-31T05:34:59.268Z,101066.63
2023-01-31T05:37:28.472Z,101063.19
2023-01-31T05:39:57.027Z,101072.53
2023-01-31T05:42:24.963Z,101069.84
2023-01-31T05:44:52.800Z,101072.19
2023-01-31T05:47:20.668Z,101082.59
2023-01-31T05:49:48.470Z,101086.84
2023-01-31T05:52:16.353Z,101075.28
2023-01-31T05:54:45.579Z,101068.41
2023-01-31T05:57:14.346Z,101071.63
2023-01-31T05:59:42.357Z,101072.53
2023-01-31T06:02:11.347Z,101081.19
2023-01-31T06:04:39.241Z,101078.38
2023-01-31T06:07:07.137Z,101074.94
2023-01-31T06:09:35.050Z,101075.56
2023-01-31T06:12:04.543Z,101079.25
2023-01-31T06:14:32.466Z,101081.50
2023-01-31T06:17:00.600Z,101074.66
2023-01-31T06:19:28.505Z,101093.47
2023-01-31T06:21:56.464Z,101083.06
2023-01-31T06:24:24.349Z,101092.63
2023-01-31T06:26:52.275Z,101089.84
2023-01-31T06:29:21.595Z,101109.13
2023-01-31T06:31:49.642Z,101103.75
2023-01-31T06:34:17.659Z,101107.81
2023-01-31T06:36:45.518Z,101110.66
2023-01-31T06:39:14.005Z,101113.94
2023-01-31T06:41:42.064Z,101115.69
2023-01-31T06:44:10.133Z,101120.03
2023-01-31T06:46:39.453Z,101123.72
2023-01-31T06:49:07.354Z,101104.25
2023-01-31T06:51:35.340Z,101102.53
2023-01-31T06:54:03.421Z,101113.69
2023-01-31T06:56:31.552Z,101099.19
2023-01-31T06:58:59.467Z,101100.66
2023-01-31T07:01:27.456Z,101104.13
2023-01-31T07:03:56.680Z,101104.13
2023-01-31T07:06:24.675Z,101114.53
2023-01-31T07:08:53.391Z,101104.97
2023-01-31T07:11:21.343Z,101098.25
2023-01-31T07:13:50.344Z,101101.41
2023-01-31T07:16:19.603Z,101101.41
2023-01-31T07:18:47.607Z,101094.50
2023-01-31T07:21:17.016Z,101087.19
2023-01-31T07:23:45.572Z,101086.69
2023-01-31T07:26:13.551Z,101079.50
2023-01-31T07:28:41.532Z,101077.03
2023-01-31T07:31:12.460Z,101075.16
2023-01-31T07:33:41.182Z,101101.19
2023-01-31T07:36:14.169Z,101108.38
2023-01-31T07:38:44.308Z,101099.66
2023-01-31T07:41:12.793Z,101104.91
2023-01-31T07:43:40.766Z,101098.13
2023-01-31T07:46:11.250Z,101108.28
2023-01-31T07:48:39.907Z,101107.50
2023-01-31T07:51:08.697Z,101104.06
2023-01-31T07:53:41.739Z,101107.47
2023-01-31T07:56:14.161Z,101098.56
2023-01-31T07:58:43.484Z,101097.53
2023-01-31T08:01:32.901Z,101093.56
2023-01-31T08:04:18.252Z,101080.22
2023-01-31T08:06:49.102Z,101092.38
2023-01-31T08:09:17.077Z,101087.47
2023-01-31T08:11:46.350Z,101081.13
2023-01-31T08:14:14.368Z,101092.03
2023-01-31T08:16:42.294Z,101080.81
2023-01-31T08:19:10.215Z,101085.16
2023-01-31T08:21:38.137Z,101084.97
2023-01-31T08:24:06.560Z,101081.09
2023-01-31T08:26:34.502Z,101087.41
2023-01-31T08:29:03.823Z,101090.69
2023-01-31T08:31:31.923Z,101080.28
2023-01-31T08:33:59.937Z,101078.03
2023-01-31T08:36:31.584Z,101070.56
2023-01-31T08:39:00.292Z,101074.72
2023-01-31T08:41:30.449Z,101066.28
2023-01-31T08:43:59.794Z,101078.69
2023-01-31T08:46:32.546Z,101066.75
2023-01-31T08:49:01.415Z,101078.88
2023-01-31T08:51:30.319Z,101086.31
2023-01-31T08:53:58.437Z,101070.56
2023-01-31T08:56:27.827Z,101062.56
2023-01-31T08:58:56.303Z,101063.41
2023-01-31T09:01:24.324Z,101060.72
2023-01-31T09:03:56.747Z,101065.41
2023-01-31T09:06:27.165Z,101062.56
2023-01-31T09:08:56.961Z,101057.47
2023-01-31T09:11:25.032Z,101070.50
2023-01-31T09:13:53.221Z,101064.53
2023-01-31T09:16:22.525Z,101057.19
2023-01-31T09:18:51.669Z,101046.81
2023-01-31T09:21:22.767Z,101048.19
2023-01-31T09:23:57.105Z,101046.16
2023-01-31T09:26:25.155Z,101037.81
2023-01-31T09:28:53.215Z,101051.31
2023-01-31T09:31:22.177Z,101045.19
2023-01-31T09:33:50.171Z,101034.75
2023-01-31T09:36:20.126Z,101033.47
2023-01-31T09:38:49.753Z,101029.88
2023-01-31T09:41:24.692Z,101027.25
2023-01-31T09:43:57.191Z,101025.25
2023-01-31T09:46:29.812Z,101029.75
2023-01-31T09:49:00.747Z,101029.75
2023-01-31T09:51:29.725Z,101027.06
2023-01-31T09:53:59.280Z,101015.59
2023-01-31T09:56:36.059Z,101012.13
2023-01-31T09:59:16.035Z,101012.59
2023-01-31T10:01:54.056Z,100998.44
2023-01-31T10:04:37.086Z,100999.91
2023-01-31T10:07:09.185Z,100999.22
2023-01-31T10:09:44.441Z,100988.00
2023-01-31T10:12:16.886Z,100991.56
2023-01-31T10:14:51.259Z,100991.88
2023-01-31T10:17:24.025Z,100985.47
2023-01-31T10:19:56.368Z,100976.41
2023-01-31T10:22:34.267Z,100973.16
2023-01-31T10:25:18.012Z,100982.03
2023-01-31T10:27:50.252Z,100969.63
2023-01-31T10:30:22.424Z,100967.53
2023-01-31T10:32:57.105Z,100962.00
2023-01-31T10:35:31.680Z,100955.06
2023-01-31T10:38:04.720Z,100956.03
2023-01-31T10:40:37.963Z,100935.66
2023-01-31T10:43:15.002Z,100947.25
2023-01-31T10:45:43.145Z,100929.03
2023-01-31T10:48:18.524Z,100921.50
2023-01-31T10:51:03.013Z,100925.53
2023-01-31T10:53:43.912Z,100921.09
2023-01-31T10:56:22.006Z,100924.31
2023-01-31T10:58:51.847Z,100909.66
2023-01-31T11:01:20.185Z,100915.44
2023-01-31T11:03:52.868Z,100918.41
2023-01-31T11:06:21.804Z,100897.03
2023-01-31T11:08:53.023Z,100894.91
2023-01-31T11:11:24.481Z,100881.38
2023-01-31T11:14:01.446Z,100878.13
2023-01-31T11:16:32.253Z,100871.28
2023-01-31T11:19:04.068Z,100869.28
2023-01-31T11:21:35.489Z,100880.16
2023-01-31T11:24:06.843Z,100858.13
2023-01-31T11:26:49.945Z,100866.22
2023-01-31T11:29:22.697Z,100850.78
2023-01-31T11:31:50.900Z,100837.09
2023-01-31T11:34:21.778Z,100841.06
2023-01-31T11:36:49.770Z,100823.28
2023-01-31T11:39:31.881Z,100816.31
2023-01-31T11:42:12.805Z,100829.47
2023-01-31T11:44:58.826Z,100816.66
2023-01-31T11:47:39.147Z,100815.06
2023-01-31T11:50:08.374Z,100808.69
2023-01-31T11:52:36.747Z,100812.06
2023-01-31T11:55:09.166Z,100803.63
2023-01-31T11:57:40.805Z,100799.81
2023-01-31T12:00:23.064Z,100792.50
2023-01-31T12:02:59.337Z,100778.72
2023-01-31T12:05:36.058Z,100769.81
2023-01-31T12:08:04.347Z,100753.81
2023-01-31T12:10:37.021Z,100742.13
2023-01-31T12:13:18.949Z,100733.00
2023-01-31T12:15:58.414Z,100722.53
2023-01-31T12:18:44.967Z,100717.94
2023-01-31T12:21:29.905Z,100711.47
2023-01-31T12:24:06.822Z,100698.06
2023-01-31T12:26:44.905Z,100701.88
2023-01-31T12:29:41.427Z,100694.91
2023-01-31T12:32:24.703Z,100691.44
2023-01-31T12:35:15.426Z,100687.53
2023-01-31T12:37:53.257Z,100680.41
2023-01-31T12:40:35.586Z,100690.44
2023-01-31T12:43:06.195Z,100676.66
2023-01-31T12:46:09.695Z,100666.97
2023-01-31T12:49:05.373Z,100670.78
2023-01-31T12:51:46.145Z,100668.75
2023-01-31T12:54:41.575Z,100664.59
2023-01-31T12:57:24.345Z,100657.69
2023-01-31T12:59:57.448Z,100659.00
2023-01-31T13:02:38.518Z,100660.69
2023-01-31T13:05:13.259Z,100653.34
2023-01-31T13:07:46.752Z,100641.56
2023-01-31T13:10:28.622Z,100633.47
2023-01-31T13:12:59.377Z,100635.00
2023-01-31T13:15:32.547Z,100639.50
2023-01-31T13:18:06.700Z,100632.78
2023-01-31T13:20:39.900Z,100632.69
2023-01-31T13:23:14.489Z,100632.19
2023-01-31T13:25:46.762Z,100627.41
2023-01-31T13:28:20.070Z,100630.00
2023-01-31T13:30:56.169Z,100611.09
2023-01-31T13:33:37.319Z,100613.50
2023-01-31T13:36:26.627Z,100616.88
2023-01-31T13:38:54.919Z,100606.16
2023-01-31T13:41:29.131Z,100621.16
2023-01-31T13:43:58.125Z,100616.03
2023-01-31T13:46:33.165Z,100600.03
2023-01-31T13:49:06.757Z,100597.00
2023-01-31T13:51:39.546Z,100607.25
2023-01-31T13:54:14.480Z,100596.91
2023-01-31T13:56:43.288Z,100602.94
2023-01-31T13:59:12.471Z,100599.53
2023-01-31T14:01:47.450Z,100600.69
2023-01-31T14:04:36.721Z,100601.81
2023-01-31T14:07:22.599Z,100609.00
2023-01-31T14:10:29.455Z,100613.00
2023-01-31T14:13:27.435Z,100599.28
2023-01-31T14:15:57.268Z,100603.81
2023-01-31T14:18:42.221Z,100600.91
2023-01-31T14:21:25.094Z,100598.16
2023-01-31T14:23:54.359Z,100594.78
2023-01-31T14:26:52.475Z,100601.13
2023-01-31T14:29:22.939Z,100588.75
2023-01-31T14:31:53.087Z,100571.94
2023-01-31T14:34:24.714Z,100580.63
2023-01-31T14:37:11.234Z,100570.34
2023-01-31T14:40:07.843Z,100577.16
2023-01-31T14:43:06.481Z,100572.91
2023-01-31T14:46:10.425Z,100575.94
2023-01-31T14:49:07.904Z,100564.91
2023-01-31T14:51:49.648Z,100562.63
2023-01-31T14:54:44.381Z,100560.06
2023-01-31T14:57:17.744Z,100553.13
2023-01-31T14:59:57.098Z,100562.41
2023-01-31T15:02:55.240Z,100554.59
2023-01-31T15:05:39.741Z,100552.66
2023-01-31T15:08:38.813Z,100551.81
2023-01-31T15:11:15.129Z,100549.75
2023-01-31T15:13:48.281Z,100546.44
2023-01-31T15:16:25.096Z,100527.34
2023-01-31T15:18:59.884Z,100533.25
2023-01-31T15:21:31.101Z,100541.84
2023-01-31T15:24:01.086Z,100553.31
2023-01-31T15:26:34.177Z,100543.81
2023-01-31T15:29:05.691Z,100543.81
2023-01-31T15:31:40.971Z,100537.88
2023-01-31T15:34:17.540Z,100522.31
2023-01-31T15:36:49.482Z,100530.00
2023-01-31T15:39:24.319Z,100530.91
2023-01-31T15:41:52.288Z,100526.69
2023-01-31T15:44:23.335Z,100522.75
2023-01-31T15:46:52.936Z,100537.47
2023-01-31T15:49:38.656Z,100528.75
2023-01-31T15:52:16.008Z,100523.44
2023-01-31T15:54:55.736Z,100525.69
2023-01-31T15:57:26.683Z,100516.72
2023-01-31T15:59:57.317Z,100514.34
2023-01-31T16:02:29.480Z,100508.91
2023-01-31T16:04:58.441Z,100499.47
2023-01-31T16:07:31.217Z,100516.72
2023-01-31T16:10:01.860Z,100521.69
2023-01-31T16:12:31.671Z,100507.88
2023-01-31T16:15:07.100Z,100489.56
2023-01-31T16:17:35.906Z,100497.22
2023-01-31T16:20:05.653Z,100501.16
2023-01-31T16:22:33.719Z,100501.09
2023-01-31T16:25:03.310Z,100511.41
2023-01-31T16:27:35.586Z,100489.47
2023-01-31T16:30:06.468Z,100500.69
2023-01-31T16:32:38.155Z,100514.53
2023-01-31T16:35:08.489Z,100522.22
2023-01-31T16:37:38.016Z,100519.41
2023-01-31T16:40:11.698Z,100519.41
2023-01-31T16:42:39.676Z,100527.84
2023-01-31T16:45:29.341Z,100521.72
2023-01-31T16:48:16.835Z,100530.13
2023-01-31T16:50:44.868Z,100510.03
2023-01-31T16:53:28.183Z,100508.34
2023-01-31T16:56:19.628Z,100488.22
2023-01-31T16:58:50.910Z,100499.09
2023-01-31T17:01:23.152Z,100486.03
2023-01-31T17:04:16.568Z,100471.56
2023-01-31T17:06:49.720Z,100471.38
2023-01-31T17:09:21.432Z,100479.88
2023-01-31T17:11:49.495Z,100483.59
2023-01-31T17:14:17.489Z,100466.91
2023-01-31T17:16:47.953Z,100479.38
2023-01-31T17:19:16.150Z,100480.31
2023-01-31T17:21:44.695Z,100479.81
2023-01-31T17:24:15.398Z,100469.03
2023-01-31T17:26:43.841Z,100475.44
2023-01-31T17:29:11.938Z,100470.97
2023-01-31T17:31:41.935Z,100463.06
2023-01-31T17:34:14.623Z,100462.16
2023-01-31T17:36:43.418Z,100469.13
2023-01-31T17:39:11.457Z,100456.06
2023-01-31T17:41:41.142Z,100442.69
2023-01-31T17:44:13.886Z,100447.06
2023-01-31T17:46:42.129Z,100439.81
2023-01-31T17:49:10.056Z,100435.72
2023-01-31T17:51:39.609Z,100429.22
2023-01-31T17:54:08.062Z,100426.25
2023-01-31T17:56:36.050Z,100416.75
2023-01-31T17:59:04.887Z,100415.81
2023-01-31T18:01:33.315Z,100410.25
2023-01-31T18:04:03.307Z,100393.75
2023-01-31T18:06:31.352Z,100380.19
2023-01-31T18:09:04.427Z,100376.16
2023-01-31T18:11:32.433Z,100381.88
2023-01-31T18:14:03.315Z,100401.72
2023-01-31T18:16:32.208Z,100401.34
2023-01-31T18:19:00.291Z,100397.63
2023-01-31T18:21:28.352Z,100397.63
2023-01-31T18:23:57.695Z,100399.28
2023-01-31T18:26:27.139Z,100392.22
2023-01-31T18:28:57.395Z,100390.47
2023-01-31T18:31:26.279Z,100383.19
2023-01-31T18:33:54.337Z,100387.50
2023-01-31T18:36:22.840Z,100385.97
2023-01-31T18:38:51.869Z,100381.72
2023-01-31T18:41:21.656Z,100372.84
2023-01-31T18:43:51.062Z,100361.28
2023-01-31T18:46:19.409Z,100362.22
2023-01-31T18:48:47.415Z,100373.41
2023-01-31T18:51:16.527Z,100372.47
2023-01-31T18:53:46.239Z,100352.34
2023-01-31T18:56:17.041Z,100353.25
2023-01-31T18:58:46.014Z,100374.53
2023-01-31T19:01:17.317Z,100349.16
2023-01-31T19:03:47.172Z,100352.03
2023-01-31T19:06:17.039Z,100352.63
2023-01-31T19:08:49.143Z,100366.22
2023-01-31T19:11:18.184Z,100363.72
2023-01-31T19:13:46.582Z,100369.50
2023-01-31T19:16:18.402Z,100374.34
2023-01-31T19:18:46.993Z,100362.31
2023-01-31T19:21:16.339Z,100364.00
2023-01-31T19:23:44.661Z,100385.34
2023-01-31T19:26:14.092Z,100403.84
2023-01-31T19:28:42.648Z,100397.94
2023-01-31T19:31:13.468Z,100509.16
2023-01-31T19:33:43.228Z,100424.25
2023-01-31T19:36:12.395Z,100420.78
2023-01-31T19:38:40.490Z,100355.47
2023-01-31T19:41:09.525Z,100421.53
2023-01-31T19:43:38.057Z,100442.56
2023-01-31T19:46:11.063Z,100411.00
2023-01-31T19:48:39.416Z,100442.59
2023-01-31T19:51:11.101Z,100411.31
2023-01-31T19:53:39.856Z,100411.53
2023-01-31T19:56:08.832Z,100407.19
2023-01-31T19:58:37.105Z,100404.72
2023-01-31T20:01:11.373Z,100433.34
2023-01-31T20:03:39.675Z,100424.13
2023-01-31T20:06:14.121Z,100421.00
2023-01-31T20:08:42.006Z,100425.94
2023-01-31T20:11:11.006Z,100444.09
2023-01-31T20:13:39.043Z,100452.69
2023-01-31T20:16:08.994Z,100442.78
2023-01-31T20:18:41.982Z,100430.38
2023-01-31T20:21:13.986Z,100453.72
2023-01-31T20:23:44.012Z,100435.59
2023-01-31T20:26:14.117Z,100441.88
2023-01-31T20:28:43.395Z,100451.91
2023-01-31T20:31:16.104Z,100446.69
2023-01-31T20:33:44.343Z,100442.63
2023-01-31T20:36:12.579Z,100450.44
2023-01-31T20:38:41.235Z,100457.63
2023-01-31T20:41:10.573Z,100457.25
2023-01-31T20:43:38.980Z,100462.78
2023-01-31T20:46:08.830Z,100462.47
2023-01-31T20:48:37.177Z,100436.41
2023-01-31T20:51:05.930Z,100454.25
2023-01-31T20:53:34.446Z,100451.38
2023-01-31T20:56:04.248Z,100460.06
2023-01-31T20:58:35.579Z,100482.63
2023-01-31T21:01:06.032Z,100490.53
2023-01-31T21:03:35.097Z,100477.13
2023-01-31T21:06:03.936Z,100485.69
2023-01-31T21:08:35.264Z,100487.22
2023-01-31T21:11:06.546Z,100490.41
2023-01-31T21:13:36.173Z,100493.94
2023-01-31T21:16:06.578Z,100498.00
2023-01-31T21:18:36.291Z,100499.34
2023-01-31T21:21:07.259Z,100504.66
2023-01-31T21:23:38.003Z,100501.03
2023-01-31T21:26:07.570Z,100505.25
2023-01-31T21:28:39.650Z,100529.91
2023-01-31T21:31:12.397Z,100517.78
2023-01-31T21:33:40.647Z,100504.59
2023-01-31T21:36:11.817Z,100521.94
2023-01-31T21:38:40.487Z,100513.34
2023-01-31T21:41:27.484Z,100519.56
2023-01-31T21:43:57.495Z,100542.03
2023-01-31T21:46:26.747Z,100568.53
2023-01-31T21:48:55.382Z,100575.72
2023-01-31T21:51:26.032Z,100564.91
2023-01-31T21:53:54.132Z,100517.25
2023-01-31T21:56:23.792Z,100526.41
2023-01-31T21:58:53.657Z,100511.72
2023-01-31T22:01:25.271Z,100541.25
2023-01-31T22:03:54.567Z,100556.56
2023-01-31T22:06:26.927Z,100545.75
2023-01-31T22:08:57.194Z,100535.47
2023-01-31T22:11:26.205Z,100544.06
2023-01-31T22:13:56.171Z,100527.06
2023-01-31T22:16:25.626Z,100526.00
2023-01-31T22:18:54.284Z,100519.09
2023-01-31T22:21:25.120Z,100522.63
2023-01-31T22:23:54.631Z,100512.00
2023-01-31T22:26:24.269Z,100523.53
2023-01-31T22:28:52.976Z,100512.28
2023-01-31T22:31:21.090Z,100524.88
2023-01-31T22:33:50.753Z,100524.72
2023-01-31T22:36:19.868Z,100519.31
2023-01-31T22:38:47.802Z,100524.28
2023-01-31T22:41:20.015Z,100523.94
2023-01-31T22:43:50.534Z,100514.06
2023-01-31T22:46:20.345Z,100521.59
2023-01-31T22:48:49.855Z,100531.78
2023-01-31T22:51:20.222Z,100522.09
2023-01-31T22:53:48.569Z,100519.41
2023-01-31T22:56:18.130Z,100527.34
2023-01-31T22:58:46.051Z,100513.91
2023-01-31T23:01:16.292Z,100524.84
2023-01-31T23:03:44.699Z,100518.78
2023-01-31T23:06:14.912Z,100519.13
2023-01-31T23:08:43.633Z,100523.28
2023-01-31T23:11:13.285Z,100522.09
2023-01-31T23:13:41.612Z,100527.03
2023-01-31T23:16:10.579Z,100513.53
2023-01-31T23:18:38.439Z,100530.59
2023-01-31T23:21:07.386Z,100525.31
2023-01-31T23:23:36.715Z,100534.06
2023-01-31T23:26:05.117Z,100537.28
2023-01-31T23:28:33.255Z,100532.91
2023-01-31T23:31:01.706Z,100504.34
2023-01-31T23:33:29.602Z,100502.50
2023-01-31T23:35:57.656Z,100501.59
2023-01-31T23:38:25.587Z,100514.44
2023-01-31T23:40:55.546Z,100513.38
2023-01-31T23:43:23.913Z,100525.41
2023-01-31T23:45:52.132Z,100514.97
2023-01-31T23:48:20.169Z,100521.47
2023-01-31T23:50:48.110Z,100525.69
2023-01-31T23:53:16.000Z,100515.00
2023-01-31T23:55:43.910Z,100518.63
2023-01-31T23:58:13.138Z,100511.59
